Time;durP1;ratioP1;P1;durP2;ratioP2;P2;SDS_P1;SDS_P2;PMS_P1;PMS_P2;Temp;Humidity;BMP_temperature;BMP_pressure;BME280_temperature;BME280_humidity;BME280_pressure;Samples;Min_cycle;Max_cycle;Signal;HPM_P1;HPM_P2
2022/10/12 00:01:28;;;;;;;12.52;3.50;;;8.70;99.90;;;;;;5017495;28;20446;-77
2022/10/12 00:03:53;;;;;;;9.43;4.00;;;8.80;99.90;;;;;;5018046;28;20132;-77
2022/10/12 00:06:21;;;;;;;6.70;3.28;;;8.90;99.90;;;;;;5034553;28;20033;-77
2022/10/12 00:08:49;;;;;;;7.05;3.10;;;8.90;99.90;;;;;;5035017;28;20021;-77
2022/10/12 00:11:17;;;;;;;10.05;3.20;;;8.90;99.90;;;;;;5035076;28;20480;-78
2022/10/12 00:13:43;;;;;;;12.13;3.78;;;8.90;99.90;;;;;;5017380;28;20508;-78
2022/10/12 00:16:10;;;;;;;8.73;4.18;;;8.90;99.90;;;;;;5017314;28;20025;-78
2022/10/12 00:18:37;;;;;;;15.40;3.83;;;8.80;99.90;;;;;;5017106;28;20036;-78
2022/10/12 00:21:07;;;;;;;7.75;2.65;;;8.80;99.90;;;;;;5017078;28;20025;-77
2022/10/12 00:23:35;;;;;;;8.57;3.88;;;8.80;99.90;;;;;;5017394;28;20217;-78
2022/10/12 00:26:03;;;;;;;9.55;4.03;;;8.80;99.90;;;;;;5017067;28;20159;-78
2022/10/12 00:28:28;;;;;;;11.68;3.83;;;8.90;99.90;;;;;;5017229;28;20061;-78
2022/10/12 00:30:54;;;;;;;9.73;3.60;;;8.90;99.90;;;;;;5017033;28;20107;-77
2022/10/12 00:33:19;;;;;;;9.88;3.55;;;8.90;99.90;;;;;;5034645;28;20025;-76
2022/10/12 00:35:45;;;;;;;13.27;3.65;;;8.80;99.90;;;;;;5017229;28;20018;-76
2022/10/12 00:38:10;;;;;;;12.27;4.25;;;8.70;99.90;;;;;;5020313;28;20028;-76
2022/10/12 00:40:36;;;;;;;10.18;3.30;;;8.60;99.90;;;;;;5034362;28;20036;-75
2022/10/12 00:43:02;;;;;;;7.30;3.60;;;8.40;99.90;;;;;;5035001;28;20060;-75
2022/10/12 00:45:27;;;;;;;8.10;3.40;;;8.20;99.90;;;;;;5017140;28;20013;-75
2022/10/12 00:47:56;;;;;;;12.23;4.15;;;8.20;99.90;;;;;;5017130;28;20443;-76
2022/10/12 00:50:29;;;;;;;11.65;4.88;;;8.20;99.90;;;;;;5016930;28;20025;-75
2022/10/12 00:53:01;;;;;;;16.95;3.72;;;8.20;99.90;;;;;;5034655;28;20021;-77
2022/10/12 00:55:31;;;;;;;7.05;3.45;;;8.20;99.90;;;;;;5016627;28;20022;-78
2022/10/12 00:57:58;;;;;;;11.00;3.53;;;8.20;99.90;;;;;;5016541;28;20025;-77
2022/10/12 01:00:23;;;;;;;6.93;3.22;;;8.20;99.90;;;;;;5016383;28;20029;-77
2022/10/12 01:02:51;;;;;;;8.85;2.90;;;8.30;99.90;;;;;;5016390;28;20033;-77
2022/10/12 01:05:18;;;;;;;6.68;3.17;;;8.30;99.90;;;;;;5016634;28;20025;-77
2022/10/12 01:07:43;;;;;;;14.63;2.97;;;8.40;99.90;;;;;;5034058;28;20032;-78
2022/10/12 01:10:09;;;;;;;8.07;3.03;;;8.50;99.90;;;;;;5016677;28;20025;-78
2022/10/12 01:12:36;;;;;;;11.45;2.88;;;8.50;99.90;;;;;;5016311;28;20084;-77
2022/10/12 01:15:02;;;;;;;8.57;3.40;;;8.40;99.90;;;;;;5033988;28;20101;-77
2022/10/12 01:18:05;;;;;;;10.65;3.55;;;8.40;99.90;;;;;;5019181;28;20021;-77
2022/10/12 01:20:47;;;;;;;10.88;3.08;;;8.40;99.90;;;;;;4998470;28;20033;-77
2022/10/12 01:23:16;;;;;;;5.70;2.55;;;8.30;99.90;;;;;;5034121;28;20197;-78
2022/10/12 01:25:50;;;;;;;10.90;3.03;;;8.30;99.90;;;;;;5016430;28;20028;-77
2022/10/12 01:28:47;;;;;;;9.13;3.22;;;8.30;99.90;;;;;;5033573;28;20032;-77
2022/10/12 01:31:31;;;;;;;9.10;3.55;;;8.30;99.90;;;;;;5033977;28;20021;-77
2022/10/12 01:34:01;;;;;;;6.97;3.30;;;8.10;99.90;;;;;;5015937;28;20021;-77
2022/10/12 01:36:36;;;;;;;10.27;3.50;;;8.00;99.90;;;;;;5015786;28;20112;-77
2022/10/12 01:39:07;;;;;;;9.60;2.90;;;7.90;99.90;;;;;;5015711;28;20032;-77
2022/10/12 01:41:42;;;;;;;10.23;3.35;;;7.90;99.90;;;;;;5016758;28;20033;-77
2022/10/12 01:44:08;;;;;;;7.00;2.75;;;8.00;99.90;;;;;;5016732;28;20029;-77
2022/10/12 01:46:42;;;;;;;9.50;2.88;;;8.20;99.90;;;;;;5016628;28;20534;-77
2022/10/12 01:49:09;;;;;;;5.80;2.90;;;8.20;99.90;;;;;;5015563;28;20054;-77
2022/10/12 01:52:07;;;;;;;9.70;3.00;;;8.20;99.90;;;;;;5015703;28;20074;-77
2022/10/12 01:55:06;;;;;;;6.05;2.90;;;8.20;99.90;;;;;;5017065;28;20020;-78
2022/10/12 01:57:38;;;;;;;8.07;2.53;;;8.10;99.90;;;;;;5036220;28;20060;-77
2022/10/12 02:00:12;;;;;;;7.85;2.60;;;8.10;99.90;;;;;;5015829;28;20030;-77
2022/10/12 02:02:51;;;;;;;12.77;2.72;;;8.10;99.90;;;;;;5015497;28;20087;-77
2022/10/12 02:05:32;;;;;;;10.57;2.90;;;8.10;99.90;;;;;;5033347;28;20075;-77
2022/10/12 02:08:38;;;;;;;12.15;3.30;;;8.00;99.90;;;;;;5033543;28;20026;-77
2022/10/12 02:11:13;;;;;;;10.95;2.40;;;8.10;99.90;;;;;;5015351;28;20039;-77
2022/10/12 02:13:46;;;;;;;12.88;2.70;;;8.20;99.90;;;;;;5033157;28;20025;-77
2022/10/12 02:16:16;;;;;;;6.88;2.80;;;8.40;99.90;;;;;;5033370;28;20056;-77
2022/10/12 02:18:45;;;;;;;9.10;2.63;;;8.40;99.90;;;;;;5015356;28;20021;-77
2022/10/12 02:21:16;;;;;;;7.45;2.72;;;8.30;99.90;;;;;;5015454;28;20120;-77
2022/10/12 02:23:43;;;;;;;6.22;3.10;;;8.20;99.90;;;;;;5016306;28;20017;-77
2022/10/12 02:26:11;;;;;;;6.85;2.50;;;8.30;99.90;;;;;;5015529;28;20036;-77
2022/10/12 02:28:37;;;;;;;8.35;2.97;;;8.20;99.90;;;;;;5015395;28;20026;-77
2022/10/12 02:31:14;;;;;;;7.25;2.35;;;8.10;99.90;;;;;;5018493;28;20029;-77
2022/10/12 02:34:34;;;;;;;8.90;3.15;;;8.00;99.90;;;;;;5019364;28;20022;-78
2022/10/12 02:37:13;;;;;;;6.85;2.72;;;7.90;99.90;;;;;;5039941;28;20033;-78
2022/10/12 02:39:49;;;;;;;7.07;2.58;;;7.80;99.90;;;;;;5036786;28;20120;-77
2022/10/12 02:42:19;;;;;;;9.23;3.15;;;7.90;99.90;;;;;;5036908;28;20025;-78
2022/10/12 02:44:46;;;;;;;14.18;3.00;;;8.10;99.90;;;;;;5019113;28;20119;-77
2022/10/12 02:47:14;;;;;;;7.65;3.03;;;8.00;99.90;;;;;;5019018;28;20168;-77
2022/10/12 02:49:40;;;;;;;7.78;2.40;;;8.00;99.90;;;;;;5019329;28;20029;-77
2022/10/12 02:52:07;;;;;;;10.95;3.15;;;8.00;99.90;;;;;;5036642;28;20029;-77
2022/10/12 02:54:32;;;;;;;12.65;2.95;;;7.90;99.90;;;;;;5036897;28;20029;-77
2022/10/12 02:56:58;;;;;;;11.05;2.88;;;7.80;99.90;;;;;;5019048;28;20021;-77
2022/10/12 02:59:23;;;;;;;9.85;2.78;;;7.80;99.90;;;;;;5036696;28;20039;-78
2022/10/12 03:01:49;;;;;;;10.48;3.70;;;7.80;99.90;;;;;;5036716;28;20026;-77
2022/10/12 03:04:15;;;;;;;6.95;2.35;;;7.80;99.90;;;;;;5019404;28;20108;-77
2022/10/12 03:06:43;;;;;;;10.95;3.08;;;7.70;99.90;;;;;;5036217;28;20057;-77
2022/10/12 03:09:09;;;;;;;11.38;2.40;;;7.70;99.90;;;;;;5036120;28;20025;-77
2022/10/12 03:11:36;;;;;;;7.45;2.65;;;7.70;99.90;;;;;;5036367;28;20125;-77
2022/10/12 03:14:02;;;;;;;8.35;2.95;;;7.70;99.90;;;;;;5018388;28;20051;-78
2022/10/12 03:16:28;;;;;;;6.80;2.70;;;7.70;99.90;;;;;;5018414;28;20025;-78
2022/10/12 03:18:53;;;;;;;8.43;2.58;;;7.60;99.90;;;;;;5039053;28;20037;-77
2022/10/12 03:21:19;;;;;;;17.77;3.53;;;7.60;99.90;;;;;;5035985;28;20021;-77
2022/10/12 03:23:44;;;;;;;8.40;3.30;;;7.70;99.90;;;;;;5018236;28;20029;-77
2022/10/12 03:26:10;;;;;;;9.88;3.13;;;7.80;99.90;;;;;;5018230;28;20072;-77
2022/10/12 03:28:36;;;;;;;7.20;3.40;;;7.80;99.90;;;;;;5018307;28;20552;-78
2022/10/12 03:31:02;;;;;;;9.93;3.92;;;7.90;99.90;;;;;;5018196;28;20052;-77
2022/10/12 03:33:27;;;;;;;9.60;3.38;;;8.00;99.90;;;;;;5036347;28;20481;-77
2022/10/12 03:35:53;;;;;;;10.48;2.80;;;8.10;99.90;;;;;;5018132;28;20021;-78
2022/10/12 03:38:19;;;;;;;13.02;3.40;;;7.90;99.90;;;;;;5018030;28;20013;-77
2022/10/12 03:40:45;;;;;;;8.82;2.75;;;7.80;99.90;;;;;;5017806;28;20030;-77
2022/10/12 03:43:11;;;;;;;13.48;3.22;;;7.60;99.90;;;;;;5035131;28;20018;-77
2022/10/12 03:45:37;;;;;;;6.50;2.80;;;7.60;99.90;;;;;;5035604;28;20045;-77
2022/10/12 03:48:05;;;;;;;7.47;2.65;;;7.40;99.90;;;;;;5018078;28;20028;-77
2022/10/12 03:50:33;;;;;;;8.82;2.92;;;7.40;99.90;;;;;;5018067;28;20025;-77
2022/10/12 03:52:59;;;;;;;7.00;2.95;;;7.30;99.90;;;;;;5035970;28;20044;-77
2022/10/12 03:55:25;;;;;;;12.00;3.28;;;7.40;99.90;;;;;;5019573;28;20025;-76
2022/10/12 03:57:50;;;;;;;9.18;2.50;;;7.40;99.90;;;;;;5017641;28;20025;-76
2022/10/12 04:00:16;;;;;;;9.82;2.90;;;7.40;99.90;;;;;;5035284;28;20120;-75
2022/10/12 04:02:41;;;;;;;10.65;2.72;;;7.40;99.90;;;;;;5035217;28;20054;-77
2022/10/12 04:05:08;;;;;;;7.85;2.63;;;7.40;99.90;;;;;;5017474;28;20032;-77
2022/10/12 04:07:33;;;;;;;9.48;3.30;;;7.40;99.90;;;;;;5017437;28;20021;-77
2022/10/12 04:09:59;;;;;;;7.00;2.35;;;7.40;99.90;;;;;;5017725;28;20171;-77
2022/10/12 04:12:24;;;;;;;8.65;2.95;;;7.50;99.90;;;;;;5017353;28;20499;-77
2022/10/12 04:14:50;;;;;;;7.75;2.80;;;7.40;99.90;;;;;;5035086;28;20036;-77
2022/10/12 04:17:16;;;;;;;7.55;2.75;;;7.40;99.90;;;;;;5017372;28;20025;-77
2022/10/12 04:19:42;;;;;;;7.93;2.75;;;7.50;99.90;;;;;;5017939;28;20032;-77
2022/10/12 04:22:08;;;;;;;5.32;2.53;;;7.50;99.90;;;;;;5034952;28;20025;-77
2022/10/12 04:24:33;;;;;;;8.02;2.60;;;7.40;99.90;;;;;;5017475;28;20030;-77
2022/10/12 04:26:59;;;;;;;10.52;2.75;;;7.20;99.90;;;;;;5017172;28;20028;-77
2022/10/12 04:29:24;;;;;;;12.57;4.10;;;7.20;99.90;;;;;;5018751;28;20034;-77
2022/10/12 04:31:50;;;;;;;10.90;2.80;;;7.10;99.90;;;;;;5018188;28;20053;-77
2022/10/12 04:34:15;;;;;;;9.48;2.53;;;7.10;99.90;;;;;;5034709;28;20026;-77
2022/10/12 04:36:41;;;;;;;10.40;3.00;;;7.10;99.90;;;;;;5017274;28;20021;-77
2022/10/12 04:39:07;;;;;;;10.23;3.65;;;7.30;99.90;;;;;;5016723;28;20026;-77
2022/10/12 04:41:33;;;;;;;13.15;2.88;;;7.50;99.90;;;;;;5035022;28;20030;-77
2022/10/12 04:43:58;;;;;;;8.43;2.83;;;7.60;99.90;;;;;;5017214;28;20057;-77
2022/10/12 04:46:24;;;;;;;5.82;2.90;;;7.60;99.90;;;;;;5017075;28;20021;-77
2022/10/12 04:48:50;;;;;;;8.32;2.42;;;7.50;99.90;;;;;;5034220;28;20030;-76
2022/10/12 04:51:15;;;;;;;8.57;3.25;;;7.50;99.90;;;;;;5017414;28;20113;-77
2022/10/12 04:53:41;;;;;;;6.10;2.40;;;7.40;99.90;;;;;;5034149;28;20163;-77
2022/10/12 04:56:07;;;;;;;12.60;2.60;;;7.40;99.90;;;;;;5016566;28;20056;-77
2022/10/12 04:58:33;;;;;;;8.30;2.80;;;7.30;99.90;;;;;;5034540;28;20374;-77
2022/10/12 05:00:58;;;;;;;13.57;2.85;;;7.20;99.90;;;;;;5034050;28;20025;-77
2022/10/12 05:03:24;;;;;;;5.88;2.33;;;7.20;99.90;;;;;;5018352;28;20033;-77
2022/10/12 05:05:50;;;;;;;8.25;2.97;;;7.10;99.90;;;;;;5016394;28;20120;-77
2022/10/12 05:08:15;;;;;;;6.38;2.63;;;7.10;99.90;;;;;;5033952;28;20108;-77
2022/10/12 05:10:41;;;;;;;7.13;3.20;;;7.20;99.90;;;;;;5016116;28;20112;-78
2022/10/12 05:13:07;;;;;;;9.40;3.30;;;7.20;99.90;;;;;;5016279;28;20018;-77
2022/10/12 05:15:32;;;;;;;6.38;2.60;;;7.30;99.90;;;;;;5033916;28;20018;-77
2022/10/12 05:17:58;;;;;;;10.40;3.42;;;7.40;99.90;;;;;;5016243;28;20030;-77
2022/10/12 05:20:24;;;;;;;9.65;3.40;;;7.50;99.90;;;;;;5016058;28;20163;-77
2022/10/12 05:22:49;;;;;;;7.75;3.35;;;7.40;99.90;;;;;;5016062;28;20052;-77
2022/10/12 05:25:15;;;;;;;10.32;3.10;;;7.40;99.90;;;;;;5016943;28;20057;-77
2022/10/12 05:27:40;;;;;;;12.25;3.17;;;7.30;99.90;;;;;;5033691;28;20106;-77
2022/10/12 05:30:07;;;;;;;7.65;3.75;;;7.10;99.90;;;;;;5016092;28;20029;-77
2022/10/12 05:32:33;;;;;;;11.82;3.03;;;7.00;99.90;;;;;;5019081;28;20032;-77
2022/10/12 05:34:58;;;;;;;7.22;2.75;;;7.00;99.90;;;;;;5015956;28;20017;-77
2022/10/12 05:37:24;;;;;;;11.98;3.58;;;7.10;99.90;;;;;;5033524;28;20025;-77
2022/10/12 05:39:50;;;;;;;14.50;2.92;;;7.00;99.90;;;;;;5015963;28;20038;-77
2022/10/12 05:42:16;;;;;;;7.93;3.00;;;7.00;99.90;;;;;;5015857;28;20033;-77
2022/10/12 05:44:42;;;;;;;5.82;2.33;;;6.90;99.90;;;;;;5033506;28;20025;-77
2022/10/12 05:47:08;;;;;;;10.45;2.80;;;6.80;99.90;;;;;;5016011;28;20017;-77
2022/10/12 05:49:33;;;;;;;10.07;2.53;;;6.80;99.90;;;;;;5015764;28;20057;-77
2022/10/12 05:51:59;;;;;;;7.07;3.42;;;6.70;99.90;;;;;;5015744;28;20013;-77
2022/10/12 05:54:24;;;;;;;8.45;3.20;;;6.70;99.90;;;;;;5015674;28;20021;-77
2022/10/12 05:56:50;;;;;;;6.15;2.65;;;6.70;99.90;;;;;;5033417;28;20017;-77
2022/10/12 05:59:15;;;;;;;6.07;2.53;;;6.80;99.90;;;;;;5015553;28;20022;-77
2022/10/12 06:01:41;;;;;;;12.02;3.47;;;6.90;99.90;;;;;;5015475;28;20097;-77
2022/10/12 06:04:07;;;;;;;8.65;3.15;;;6.80;99.90;;;;;;5015097;28;20036;-77
2022/10/12 06:06:32;;;;;;;12.02;3.15;;;6.80;99.90;;;;;;5015543;28;20183;-77
2022/10/12 06:08:58;;;;;;;6.93;3.22;;;6.80;99.90;;;;;;5035022;28;20037;-77
2022/10/12 06:11:23;;;;;;;12.80;3.50;;;6.80;99.90;;;;;;5033180;28;20034;-77
2022/10/12 06:13:49;;;;;;;8.30;3.15;;;6.80;99.90;;;;;;5015407;28;20022;-77
2022/10/12 06:16:14;;;;;;;6.82;2.60;;;6.80;99.90;;;;;;5033123;28;20094;-77
2022/10/12 06:18:40;;;;;;;7.90;2.13;;;6.70;99.90;;;;;;5015273;28;20030;-76
2022/10/12 06:21:05;;;;;;;8.35;2.83;;;6.80;99.90;;;;;;5033057;28;20025;-77
2022/10/12 06:23:31;;;;;;;6.82;3.15;;;6.90;99.90;;;;;;5033048;28;20064;-77
2022/10/12 06:25:56;;;;;;;8.07;3.42;;;6.90;99.90;;;;;;5033042;28;20033;-77
2022/10/12 06:28:22;;;;;;;6.45;2.50;;;6.90;99.90;;;;;;5015244;28;20025;-77
2022/10/12 06:30:58;;;;;;;6.70;3.50;;;7.00;99.90;;;;;;5015468;28;20022;-77
2022/10/12 06:33:25;;;;;;;8.20;3.05;;;6.90;99.90;;;;;;5015874;28;20029;-77
2022/10/12 06:35:51;;;;;;;5.15;2.40;;;7.00;99.90;;;;;;5033290;28;20101;-77
2022/10/12 06:38:17;;;;;;;8.48;3.17;;;7.00;99.90;;;;;;5035512;28;20064;-77
2022/10/12 06:40:42;;;;;;;9.80;2.35;;;7.00;99.90;;;;;;5015226;28;20091;-77
2022/10/12 06:43:08;;;;;;;15.02;3.17;;;7.10;99.90;;;;;;5015199;28;20071;-77
2022/10/12 06:45:34;;;;;;;5.68;2.75;;;7.20;99.90;;;;;;5033178;28;20063;-77
2022/10/12 06:48:00;;;;;;;6.40;2.33;;;7.20;99.90;;;;;;5015450;28;20018;-77
2022/10/12 06:50:26;;;;;;;6.05;2.72;;;7.20;99.90;;;;;;5014977;28;20032;-77
2022/10/12 06:52:52;;;;;;;8.55;2.80;;;7.20;99.90;;;;;;5033141;28;20024;-77
2022/10/12 06:55:18;;;;;;;9.20;2.90;;;7.20;99.90;;;;;;5032746;28;20105;-77
2022/10/12 06:57:43;;;;;;;15.13;3.33;;;7.20;99.90;;;;;;5033031;28;20152;-77
2022/10/12 07:00:10;;;;;;;9.02;3.38;;;7.20;99.90;;;;;;5014947;28;20064;-77
2022/10/12 07:02:36;;;;;;;3.97;2.50;;;7.20;99.90;;;;;;5032670;28;20096;-77
2022/10/12 07:05:01;;;;;;;6.65;3.22;;;7.30;99.90;;;;;;5032668;28;20155;-77
2022/10/12 07:07:31;;;;;;;5.10;2.45;;;7.40;99.90;;;;;;5015294;28;20092;-77
2022/10/12 07:09:57;;;;;;;8.27;3.20;;;7.50;99.90;;;;;;5015121;28;20025;-77
2022/10/12 07:12:22;;;;;;;7.95;3.03;;;7.50;99.90;;;;;;5015669;28;20100;-76
2022/10/12 07:14:48;;;;;;;8.50;2.55;;;7.60;99.90;;;;;;5018926;28;20022;-77
2022/10/12 07:17:13;;;;;;;3.80;2.72;;;7.50;99.90;;;;;;5034474;28;20067;-77
2022/10/12 07:19:39;;;;;;;6.60;2.88;;;7.60;99.90;;;;;;5037094;28;20034;-78
2022/10/12 07:22:05;;;;;;;6.88;2.33;;;7.70;99.90;;;;;;5038144;28;20025;-78
2022/10/12 07:24:36;;;;;;;6.28;3.10;;;7.80;99.90;;;;;;5019858;28;20132;-78
2022/10/12 07:27:07;;;;;;;46.35;4.03;;;7.90;99.90;;;;;;5037891;28;20473;-78
2022/10/12 07:29:33;;;;;;;10.30;2.30;;;8.00;99.90;;;;;;5019610;28;20037;-78
2022/10/12 07:31:59;;;;;;;5.22;2.63;;;8.10;99.90;;;;;;5019189;28;20075;-78
2022/10/12 07:34:26;;;;;;;7.95;2.85;;;8.10;99.90;;;;;;5019380;28;20025;-78
2022/10/12 07:36:51;;;;;;;8.07;3.35;;;8.10;99.90;;;;;;5018539;28;20018;-78
2022/10/12 07:39:18;;;;;;;4.80;2.78;;;8.00;99.90;;;;;;5018802;28;20040;-78
2022/10/12 07:41:43;;;;;;;11.80;3.58;;;8.10;99.90;;;;;;5036740;28;20043;-78
2022/10/12 07:44:09;;;;;;;9.88;3.53;;;8.10;99.90;;;;;;5019404;28;20022;-78
2022/10/12 07:46:35;;;;;;;10.30;3.22;;;8.20;99.90;;;;;;5036679;28;20025;-78
2022/10/12 07:49:01;;;;;;;7.80;3.13;;;8.30;99.90;;;;;;5019320;28;20141;-77
2022/10/12 07:51:27;;;;;;;13.32;3.72;;;8.50;99.90;;;;;;5019841;28;20022;-79
2022/10/12 07:53:53;;;;;;;9.00;3.10;;;8.50;99.90;;;;;;5021347;28;20022;-79
2022/10/12 07:56:18;;;;;;;13.85;3.65;;;8.60;99.90;;;;;;5019983;28;20020;-78
2022/10/12 07:58:52;;;;;;;14.55;3.88;;;8.70;99.90;;;;;;5036654;28;20036;-78
2022/10/12 08:01:20;;;;;;;11.00;3.00;;;8.70;99.90;;;;;;5022806;28;20064;-79
2022/10/12 08:03:47;;;;;;;10.90;3.63;;;8.80;99.90;;;;;;5023253;28;20087;-80
2022/10/12 08:06:21;;;;;;;12.65;3.05;;;8.80;99.90;;;;;;5039610;28;20037;-79
2022/10/12 08:08:47;;;;;;;10.57;3.60;;;8.90;99.90;;;;;;5040017;28;20086;-78
2022/10/12 08:11:13;;;;;;;9.85;4.07;;;8.90;99.90;;;;;;5042623;28;20097;-80
2022/10/12 08:13:40;;;;;;;8.63;3.25;;;8.90;99.90;;;;;;5027184;28;20079;-80
2022/10/12 08:16:09;;;;;;;10.70;3.90;;;8.90;99.90;;;;;;5023146;28;20025;-78
2022/10/12 08:18:35;;;;;;;25.50;4.63;;;9.00;99.90;;;;;;5018818;28;20040;-77
2022/10/12 08:21:03;;;;;;;12.57;4.10;;;9.10;99.90;;;;;;5018045;28;20021;-77
2022/10/12 08:23:29;;;;;;;11.65;3.90;;;9.20;99.90;;;;;;5020232;28;20152;-77
2022/10/12 08:25:56;;;;;;;9.20;4.00;;;9.20;99.90;;;;;;5018281;28;20041;-72
2022/10/12 08:28:23;;;;;;;9.27;3.65;;;9.30;99.90;;;;;;5017491;28;20117;-74
2022/10/12 08:30:49;;;;;;;10.00;4.47;;;9.30;99.90;;;;;;5016771;28;20076;-75
2022/10/12 08:33:15;;;;;;;12.20;4.25;;;9.40;99.90;;;;;;5034637;28;20033;-76
2022/10/12 08:35:41;;;;;;;8.90;3.65;;;9.50;99.90;;;;;;5016990;28;20048;-75
2022/10/12 08:38:09;;;;;;;12.13;4.20;;;9.70;99.90;;;;;;5017663;28;20014;-75
2022/10/12 08:40:48;;;;;;;9.32;4.25;;;9.70;99.90;;;;;;5016607;28;20064;-75
2022/10/12 08:43:41;;;;;;;11.98;4.50;;;9.80;99.90;;;;;;5034483;28;20025;-75
2022/10/12 08:46:07;;;;;;;8.50;3.88;;;9.90;99.90;;;;;;5034812;28;20021;-75
2022/10/12 08:48:39;;;;;;;11.68;4.00;;;9.90;99.90;;;;;;5016949;28;20079;-75
2022/10/12 08:51:09;;;;;;;7.53;4.55;;;10.10;99.90;;;;;;5017618;28;20416;-75
2022/10/12 08:53:58;;;;;;;11.13;4.45;;;10.20;99.90;;;;;;5016736;28;20033;-75
2022/10/12 08:56:24;;;;;;;10.45;4.38;;;10.30;99.90;;;;;;5015904;28;20029;-74
2022/10/12 08:58:51;;;;;;;11.63;4.82;;;10.40;99.90;;;;;;5017257;28;20059;-77
2022/10/12 09:01:38;;;;;;;9.18;3.33;;;10.50;99.90;;;;;;5017272;28;20037;-76
2022/10/12 09:04:41;;;;;;;8.57;3.97;;;10.60;99.90;;;;;;5016511;28;20057;-76
2022/10/12 09:07:29;;;;;;;9.02;3.80;;;10.60;99.90;;;;;;5034377;28;20068;-76
2022/10/12 09:10:08;;;;;;;9.50;3.72;;;10.70;99.90;;;;;;5033987;28;20029;-76
2022/10/12 09:12:50;;;;;;;9.02;4.32;;;10.80;99.90;;;;;;5017235;28;20029;-76
2022/10/12 09:15:29;;;;;;;12.02;4.35;;;11.00;99.90;;;;;;5016318;28;20018;-76
2022/10/12 09:17:56;;;;;;;16.05;4.43;;;11.00;99.90;;;;;;5016135;28;20034;-76
2022/10/12 09:20:31;;;;;;;7.68;3.90;;;11.20;99.90;;;;;;5016169;28;20171;-76
2022/10/12 09:23:21;;;;;;;15.50;3.47;;;11.30;99.90;;;;;;5017038;28;20029;-76
2022/10/12 09:25:47;;;;;;;11.60;4.20;;;11.50;99.90;;;;;;5016895;28;20033;-76
2022/10/12 09:28:33;;;;;;;13.43;3.50;;;11.60;99.90;;;;;;5033755;28;20028;-75
2022/10/12 09:31:26;;;;;;;8.70;4.22;;;11.70;99.90;;;;;;5033545;28;20029;-74
2022/10/12 09:34:00;;;;;;;11.13;3.55;;;11.80;99.90;;;;;;5015895;28;20116;-74
2022/10/12 09:36:31;;;;;;;14.70;4.30;;;11.80;99.90;;;;;;5033813;28;20487;-74
2022/10/12 09:38:58;;;;;;;9.60;4.18;;;12.00;99.90;;;;;;5015815;28;20060;-74
2022/10/12 09:41:31;;;;;;;9.40;3.67;;;12.10;99.90;;;;;;5015721;28;20052;-74
2022/10/12 09:44:00;;;;;;;12.95;4.43;;;12.30;99.90;;;;;;5033441;28;20021;-74
2022/10/12 09:46:46;;;;;;;8.48;3.40;;;12.40;99.90;;;;;;5033647;28;20036;-74
2022/10/12 09:49:12;;;;;;;14.23;5.57;;;12.50;99.90;;;;;;5033529;28;20032;-74
2022/10/12 09:51:38;;;;;;;9.88;3.88;;;12.50;99.90;;;;;;5033385;28;20021;-74
2022/10/12 09:54:04;;;;;;;11.23;4.43;;;12.70;99.90;;;;;;5033561;28;20110;-74
2022/10/12 09:56:41;;;;;;;11.05;4.18;;;12.80;99.90;;;;;;5033292;28;20033;-74
2022/10/12 09:59:21;;;;;;;9.75;3.67;;;12.80;99.90;;;;;;5033238;28;20021;-74
2022/10/12 10:02:09;;;;;;;13.63;3.65;;;12.90;99.90;;;;;;5033583;28;20024;-74
2022/10/12 10:04:36;;;;;;;14.43;4.22;;;13.10;99.90;;;;;;5033560;28;20081;-74
2022/10/12 10:07:24;;;;;;;9.32;3.55;;;13.20;99.90;;;;;;5015557;28;20064;-74
2022/10/12 10:10:09;;;;;;;13.68;3.88;;;13.20;99.90;;;;;;5015370;28;20024;-75
2022/10/12 10:12:48;;;;;;;10.13;3.03;;;13.40;99.90;;;;;;5015517;28;20022;-75
2022/10/12 10:15:32;;;;;;;13.25;3.30;;;13.50;99.90;;;;;;5033321;28;20092;-75
2022/10/12 10:18:03;;;;;;;16.48;3.45;;;13.70;99.90;;;;;;5033137;28;20048;-75
2022/10/12 10:20:49;;;;;;;8.40;3.80;;;13.80;99.90;;;;;;5033102;28;20021;-75
2022/10/12 10:23:31;;;;;;;11.27;3.40;;;14.00;99.90;;;;;;5016472;28;20038;-75
2022/10/12 10:26:03;;;;;;;10.68;3.22;;;14.20;99.90;;;;;;5015384;28;20029;-74
2022/10/12 10:28:37;;;;;;;8.55;3.30;;;14.20;99.90;;;;;;5015426;28;20033;-74
2022/10/12 10:31:11;;;;;;;15.00;3.45;;;14.20;99.90;;;;;;5015475;28;20022;-73
2022/10/12 10:33:37;;;;;;;11.55;3.25;;;14.30;99.90;;;;;;5032971;28;20104;-73
2022/10/12 10:36:19;;;;;;;10.90;3.05;;;14.50;99.90;;;;;;5033204;28;20115;-73
2022/10/12 10:39:05;;;;;;;7.22;3.10;;;14.80;99.90;;;;;;5015125;28;20087;-73
2022/10/12 10:41:40;;;;;;;10.82;3.30;;;15.10;99.90;;;;;;5015738;28;20034;-73
2022/10/12 10:44:26;;;;;;;10.15;3.42;;;15.20;99.90;;;;;;5015093;28;20060;-73
2022/10/12 10:46:55;;;;;;;11.30;3.20;;;15.20;99.90;;;;;;5000432;28;20025;-73
2022/10/12 10:49:37;;;;;;;11.18;2.90;;;15.20;99.90;;;;;;5015858;28;20029;-73
2022/10/12 10:52:05;;;;;;;10.60;2.70;;;15.20;99.90;;;;;;5035722;28;20075;-74
2022/10/12 10:54:35;;;;;;;8.25;2.47;;;15.20;99.90;;;;;;5019363;28;20025;-74
2022/10/12 10:57:22;;;;;;;13.85;2.75;;;15.40;99.90;;;;;;5019569;28;20026;-74
2022/10/12 10:59:56;;;;;;;10.13;2.50;;;15.70;99.90;;;;;;5036482;28;20025;-74
2022/10/12 11:02:57;;;;;;;7.63;3.20;;;15.80;99.90;;;;;;5036372;28;20026;-74
2022/10/12 11:05:32;;;;;;;7.43;2.85;;;16.00;99.90;;;;;;5036405;28;20033;-74
2022/10/12 11:08:04;;;;;;;15.10;3.45;;;16.30;99.90;;;;;;5018645;28;20029;-74
2022/10/12 11:10:39;;;;;;;11.00;3.58;;;16.40;99.90;;;;;;5036087;28;20033;-74
2022/10/12 11:13:09;;;;;;;15.52;3.47;;;16.50;99.90;;;;;;5019737;28;20037;-74
2022/10/12 11:15:51;;;;;;;9.05;4.13;;;16.70;99.90;;;;;;5018421;28;20030;-74
2022/10/12 11:18:26;;;;;;;12.25;3.28;;;16.90;99.90;;;;;;5018402;28;20063;-74
2022/10/12 11:20:56;;;;;;;10.60;3.58;;;16.80;99.90;;;;;;5018260;28;20052;-74
2022/10/12 11:23:57;;;;;;;4.78;3.10;;;16.60;99.90;;;;;;5018303;28;20021;-74
2022/10/12 11:26:48;;;;;;;12.18;3.90;;;16.40;99.90;;;;;;5019107;28;20116;-74
2022/10/12 11:29:16;;;;;;;12.05;4.03;;;16.30;99.90;;;;;;5035783;28;20033;-74
2022/10/12 11:32:11;;;;;;;14.50;6.75;;;16.20;99.90;;;;;;5018178;28;20141;-75
2022/10/12 11:34:50;;;;;;;8.93;4.07;;;16.30;99.90;;;;;;5017749;28;20156;-75
2022/10/12 11:37:27;;;;;;;12.30;4.40;;;16.30;99.90;;;;;;5036117;28;20037;-75
2022/10/12 11:39:55;;;;;;;9.60;4.45;;;16.20;99.90;;;;;;5017999;28;20552;-76
2022/10/12 11:42:34;;;;;;;10.48;3.78;;;16.40;99.90;;;;;;5018783;28;20029;-74
2022/10/12 11:45:04;;;;;;;12.85;3.78;;;16.70;99.90;;;;;;5017945;28;20041;-74
2022/10/12 11:47:44;;;;;;;13.38;4.28;;;17.10;99.90;;;;;;5018823;28;20060;-75
2022/10/12 11:50:37;;;;;;;12.05;3.55;;;17.30;99.90;;;;;;5036007;28;20481;-75
2022/10/12 11:53:15;;;;;;;18.88;4.28;;;17.40;99.90;;;;;;5017757;28;20511;-74
2022/10/12 11:55:45;;;;;;;10.77;4.45;;;17.50;99.90;;;;;;5035531;28;20093;-74
2022/10/12 11:58:39;;;;;;;14.95;4.25;;;17.70;99.90;;;;;;5017730;28;20022;-74
2022/10/12 12:01:30;;;;;;;11.60;5.05;;;17.80;99.90;;;;;;5015203;28;20069;-74
2022/10/12 12:04:15;;;;;;;13.18;3.80;;;17.80;99.90;;;;;;5016804;28;20443;-74
2022/10/12 12:06:56;;;;;;;9.40;4.10;;;17.70;99.90;;;;;;5017899;28;20056;-74
2022/10/12 12:09:38;;;;;;;13.32;5.35;;;17.90;99.90;;;;;;5017428;28;20056;-74
2022/10/12 12:12:15;;;;;;;13.02;5.32;;;18.00;99.90;;;;;;5035142;28;20030;-74
2022/10/12 12:14:59;;;;;;;16.10;5.43;;;17.80;99.90;;;;;;5018258;28;20018;-74
2022/10/12 12:17:27;;;;;;;14.23;5.13;;;17.60;99.90;;;;;;5035071;28;20025;-74
2022/10/12 12:19:54;;;;;;;17.92;5.78;;;17.50;99.90;;;;;;5034992;28;20025;-74
2022/10/12 12:22:25;;;;;;;12.63;4.80;;;17.40;99.90;;;;;;5017234;28;20029;-74
2022/10/12 12:25:03;;;;;;;9.55;4.18;;;17.40;99.90;;;;;;5017151;28;20021;-74
2022/10/12 12:27:39;;;;;;;14.10;4.95;;;17.40;99.90;;;;;;5017029;28;20041;-75
2022/10/12 12:30:27;;;;;;;10.23;4.28;;;17.30;99.90;;;;;;5017032;28;20112;-74
2022/10/12 12:33:03;;;;;;;11.50;3.58;;;17.30;99.90;;;;;;5005007;28;20033;-74
2022/10/12 12:35:34;;;;;;;9.95;3.85;;;17.20;99.90;;;;;;5016976;28;20112;-74
2022/10/12 12:38:11;;;;;;;11.48;4.13;;;17.30;99.90;;;;;;5017626;28;20043;-74
2022/10/12 12:40:38;;;;;;;10.85;3.70;;;17.40;99.90;;;;;;5016749;28;20037;-74
2022/10/12 12:43:27;;;;;;;13.57;4.10;;;17.40;99.90;;;;;;5016834;28;20083;-74
2022/10/12 12:45:56;;;;;;;13.02;4.57;;;17.50;99.90;;;;;;5016730;28;20116;-74
2022/10/12 12:48:40;;;;;;;12.13;3.92;;;17.60;99.90;;;;;;5034456;28;20109;-74
2022/10/12 12:51:44;;;;;;;15.15;4.28;;;17.80;99.90;;;;;;5017601;28;20061;-74
2022/10/12 12:54:19;;;;;;;7.93;4.13;;;17.90;99.90;;;;;;4938296;29;20131;-74
2022/10/12 12:57:09;;;;;;;12.90;5.32;;;17.80;99.90;;;;;;4954303;29;20110;-74
2022/10/12 12:59:46;;;;;;;14.15;4.75;;;17.80;99.90;;;;;;4954564;29;20111;-74
2022/10/12 13:02:22;;;;;;;13.85;5.20;;;17.80;99.90;;;;;;4954167;29;20031;-74
2022/10/12 13:05:07;;;;;;;9.20;4.82;;;17.60;99.90;;;;;;4938003;29;20027;-74
2022/10/12 13:07:45;;;;;;;11.40;5.95;;;17.50;99.90;;;;;;4937919;29;20023;-74
2022/10/12 13:10:26;;;;;;;22.35;5.53;;;17.50;99.90;;;;;;4937743;29;20039;-74